Terminal Aerodrome Forecast
Issued by NWS Paducah, KY

Home | Current Version | Previous Version | Text Only | Print | Product List | Glossary On
Versions: 1 2 3 4 5 6 7 8 9 10 11 12 13 14 15 16 17 18 19 20
000
FTUS43 KPAH 271350 AAB
TAFEVV
TAF AMD
KEVV 271350Z 2714/2812 10006KT 4SM -TSRA BR BKN025CB
      TEMPO 2714/2717 1SM TSRA BR BKN003CB
     FM271700 15006KT 5SM BR SCT020 OVC040
     FM272000 20012G22KT 3SM -TSRA BR OVC015CB
     FM280000 21007KT P6SM SCT020 BKN100
     FM280600 23003KT P6SM SCT100=

USA.gov is the U.S. government's official web portal to all federal, state and local government web resources and services.